createdAt,value
2019-05-13T00:00:40.520Z,5.83
2019-05-13T00:03:29.070Z,5.73
2019-05-13T00:06:17.571Z,6.17
2019-05-13T00:09:06.789Z,6.23
2019-05-13T00:11:54.520Z,5.93
2019-05-13T00:14:43.417Z,4.87
2019-05-13T00:17:33.754Z,6.80
2019-05-13T00:20:21.449Z,10.93
2019-05-13T00:23:09.507Z,5.93
2019-05-13T00:25:57.083Z,6.13
2019-05-13T00:28:45.100Z,3.93
2019-05-13T00:31:33.565Z,5.90
2019-05-13T00:34:24.198Z,7.10
2019-05-13T00:37:14.509Z,7.57
2019-05-13T00:40:03.980Z,4.73
2019-05-13T00:42:51.539Z,3.80
2019-05-13T00:45:39.271Z,11.37
2019-05-13T00:48:29.721Z,5.20
2019-05-13T00:51:17.212Z,7.13
2019-05-13T00:54:05.690Z,7.30
2019-05-13T00:56:54.807Z,6.10
2019-05-13T00:59:44.284Z,8.47
2019-05-13T01:02:33.814Z,9.83
2019-05-13T01:05:23.451Z,6.57
2019-05-13T01:08:11.626Z,8.00
2019-05-13T01:10:59.579Z,7.10
2019-05-13T01:13:47.507Z,7.37
2019-05-13T01:16:35.727Z,6.97
2019-05-13T01:19:24.079Z,6.63
2019-05-13T01:22:13.497Z,6.10
2019-05-13T01:25:03.754Z,4.60
2019-05-13T01:27:50.894Z,9.43
2019-05-13T01:30:38.547Z,4.20
2019-05-13T01:33:26.463Z,7.70
2019-05-13T01:36:14.469Z,7.33
2019-05-13T01:39:04.992Z,5.17
2019-05-13T01:41:54.047Z,6.30
2019-05-13T01:44:43.787Z,8.40
2019-05-13T01:47:34.399Z,7.80
2019-05-13T01:50:24.145Z,5.90
2019-05-13T01:53:14.442Z,8.33
2019-05-13T01:56:03.954Z,7.47
2019-05-13T01:58:54.162Z,5.93
2019-05-13T02:01:44.139Z,6.00
2019-05-13T02:04:33.574Z,5.40
2019-05-13T02:07:24.287Z,8.50
2019-05-13T02:10:14.408Z,10.77
2019-05-13T02:13:04.054Z,5.80
2019-05-13T02:15:54.198Z,4.20
2019-05-13T02:18:44.233Z,4.03
2019-05-13T02:21:33.651Z,5.07
2019-05-13T02:24:23.652Z,8.53
2019-05-13T02:27:14.075Z,8.70
2019-05-13T02:30:05.153Z,8.20
2019-05-13T02:32:53.088Z,4.40
2019-05-13T02:35:43.380Z,8.87
2019-05-13T02:38:35.197Z,7.27
2019-05-13T02:41:22.810Z,5.57
2019-05-13T02:44:12.265Z,8.50
2019-05-13T02:47:03.385Z,6.90
2019-05-13T02:49:53.053Z,5.80
2019-05-13T02:52:39.346Z,6.13
2019-05-13T02:55:27.388Z,5.23
2019-05-13T02:58:14.880Z,5.10
2019-05-13T03:01:03.451Z,8.87
2019-05-13T03:03:52.969Z,11.60
2019-05-13T03:06:43.513Z,6.00
2019-05-13T03:09:32.480Z,9.00
2019-05-13T03:12:23.153Z,7.47
2019-05-13T03:15:12.970Z,8.63
2019-05-13T03:18:07.028Z,6.60
2019-05-13T03:20:54.669Z,7.40
2019-05-13T03:23:44.401Z,4.93
2019-05-13T03:26:32.883Z,6.50
2019-05-13T03:29:22.345Z,5.63
2019-05-13T03:32:16.015Z,5.60
2019-05-13T03:35:06.296Z,5.70
2019-05-13T03:37:52.802Z,6.10
2019-05-13T03:40:42.781Z,9.00
2019-05-13T03:43:33.312Z,9.20
2019-05-13T03:46:23.075Z,6.90
2019-05-13T03:49:13.949Z,6.90
2019-05-13T03:52:03.286Z,8.13
2019-05-13T03:54:52.259Z,7.20
2019-05-13T03:57:42.630Z,7.90
2019-05-13T04:00:32.278Z,7.33
2019-05-13T04:03:22.733Z,7.00
2019-05-13T04:06:13.471Z,7.90
2019-05-13T04:09:21.036Z,6.17
2019-05-13T04:11:52.666Z,6.93
2019-05-13T04:14:42.374Z,13.00
2019-05-13T04:17:32.064Z,7.20
2019-05-13T04:20:23.027Z,8.97
2019-05-13T04:23:12.868Z,9.93
2019-05-13T04:26:02.561Z,9.33
2019-05-13T04:28:52.395Z,8.00
2019-05-13T04:31:42.209Z,7.90
2019-05-13T04:34:28.683Z,5.83
2019-05-13T04:37:16.660Z,10.20
2019-05-13T04:40:06.733Z,8.53
2019-05-13T04:42:55.261Z,12.57
2019-05-13T04:45:43.525Z,8.23
2019-05-13T04:48:33.864Z,9.17
2019-05-13T04:51:22.792Z,8.63
2019-05-13T04:54:13.034Z,9.07
2019-05-13T04:57:02.894Z,10.20
2019-05-13T04:59:55.005Z,9.00
2019-05-13T05:03:22.370Z,6.90
2019-05-13T05:06:33.297Z,7.70
2019-05-13T05:10:13.017Z,11.27
2019-05-13T05:13:22.910Z,10.93
2019-05-13T05:16:44.695Z,6.37
2019-05-13T05:20:03.805Z,7.80
2019-05-13T05:23:21.579Z,13.03
2019-05-13T05:26:52.061Z,12.03
2019-05-13T05:29:52.637Z,13.40
2019-05-13T05:33:02.427Z,8.90
2019-05-13T05:36:21.780Z,9.30
2019-05-13T05:39:22.777Z,13.63
2019-05-13T05:42:15.059Z,16.30
2019-05-13T05:45:05.644Z,11.80
2019-05-13T05:47:55.427Z,13.73
2019-05-13T05:50:43.688Z,10.30
2019-05-13T05:53:32.330Z,8.07
2019-05-13T05:56:22.607Z,9.23
2019-05-13T05:59:12.452Z,8.47
2019-05-13T06:02:01.958Z,14.07
2019-05-13T06:04:52.082Z,13.07
2019-05-13T06:07:42.137Z,9.97
2019-05-13T06:10:44.182Z,8.60
2019-05-13T06:13:21.447Z,14.70
2019-05-13T06:16:12.192Z,15.83
2019-05-13T06:19:01.452Z,13.20
2019-05-13T06:21:51.352Z,10.10
2019-05-13T06:24:41.862Z,10.07
2019-05-13T06:27:31.787Z,14.10
2019-05-13T06:30:21.802Z,9.37
2019-05-13T06:33:12.075Z,8.90
2019-05-13T06:36:01.226Z,7.40
2019-05-13T06:38:51.317Z,7.77
2019-05-13T06:41:41.643Z,12.50
2019-05-13T06:44:31.672Z,9.37
2019-05-13T06:47:21.743Z,12.37
2019-05-13T06:50:11.677Z,10.97
2019-05-13T06:53:02.116Z,11.27
2019-05-13T06:55:49.512Z,11.43
2019-05-13T06:58:37.921Z,8.33
2019-05-13T07:01:26.082Z,13.53
2019-05-13T07:04:15.036Z,8.17
2019-05-13T07:07:12.234Z,9.67
2019-05-13T07:09:52.649Z,11.77
2019-05-13T07:12:41.199Z,12.13
2019-05-13T07:15:31.381Z,9.30
2019-05-13T07:18:21.688Z,9.70
2019-05-13T07:21:08.595Z,8.87
2019-05-13T07:23:57.175Z,14.93
2019-05-13T07:26:45.819Z,12.60
2019-05-13T07:29:33.735Z,6.43
2019-05-13T07:32:22.260Z,9.60
2019-05-13T07:35:14.159Z,8.50
2019-05-13T07:38:02.216Z,8.10
2019-05-13T07:40:55.359Z,11.33
2019-05-13T07:43:42.831Z,9.47
2019-05-13T07:46:32.271Z,9.20
2019-05-13T07:49:22.518Z,8.70
2019-05-13T07:52:11.949Z,12.90
2019-05-13T07:55:01.603Z,9.83
2019-05-13T07:57:51.459Z,6.20
2019-05-13T08:00:41.658Z,10.37
2019-05-13T08:03:28.371Z,8.20
2019-05-13T08:06:16.537Z,6.47
2019-05-13T08:09:06.403Z,8.40
2019-05-13T08:12:06.473Z,8.40
2019-05-13T08:14:43.887Z,6.57
2019-05-13T08:17:32.829Z,7.57
2019-05-13T08:20:22.118Z,6.77
2019-05-13T08:23:11.830Z,8.57
2019-05-13T08:26:02.089Z,7.07
2019-05-13T08:29:00.320Z,16.50
2019-05-13T08:31:41.272Z,5.93
2019-05-13T08:34:29.474Z,7.63
2019-05-13T08:37:17.187Z,6.80
2019-05-13T08:40:06.451Z,7.77
2019-05-13T08:42:55.167Z,7.20
2019-05-13T08:45:43.365Z,4.93
2019-05-13T08:48:32.388Z,6.40
2019-05-13T08:51:22.092Z,6.70
2019-05-13T08:54:11.465Z,5.37
2019-05-13T08:57:02.484Z,5.87
2019-05-13T08:59:51.553Z,4.50
2019-05-13T09:02:42.054Z,4.50
2019-05-13T09:05:31.863Z,5.20
2019-05-13T09:08:22.334Z,5.63
2019-05-13T09:11:12.078Z,8.60
2019-05-13T09:14:02.248Z,4.00
2019-05-13T09:16:52.520Z,5.47
2019-05-13T09:19:41.467Z,5.20
2019-05-13T09:22:31.883Z,4.77
2019-05-13T09:25:21.561Z,8.33
2019-05-13T09:28:09.264Z,5.20
2019-05-13T09:30:56.836Z,2.67
2019-05-13T09:33:45.376Z,6.23
2019-05-13T09:36:33.491Z,4.57
2019-05-13T09:39:21.812Z,4.20
2019-05-13T09:42:12.387Z,4.10
2019-05-13T09:45:02.123Z,3.77
2019-05-13T09:47:52.389Z,3.67
2019-05-13T09:50:42.351Z,3.37
2019-05-13T09:53:29.072Z,3.53
2019-05-13T09:56:17.133Z,5.90
2019-05-13T09:59:04.821Z,2.27
2019-05-13T10:01:53.008Z,2.63
2019-05-13T10:04:43.565Z,4.80
2019-05-13T10:07:31.891Z,7.50
2019-05-13T10:10:22.377Z,2.97
2019-05-13T10:13:13.071Z,4.60
2019-05-13T10:15:59.201Z,2.83
2019-05-13T10:18:47.237Z,3.10
2019-05-13T10:21:36.795Z,2.90
2019-05-13T10:24:24.754Z,3.23
2019-05-13T10:27:12.888Z,2.70
2019-05-13T10:30:01.200Z,3.93
2019-05-13T10:32:49.175Z,3.83
2019-05-13T10:35:37.751Z,3.33
2019-05-13T10:38:27.814Z,2.90
2019-05-13T10:41:16.015Z,3.75
2019-05-13T10:44:03.763Z,3.40
2019-05-13T10:46:52.189Z,3.00
2019-05-13T10:49:42.414Z,3.55
2019-05-13T10:52:32.174Z,5.00
2019-05-13T10:55:21.597Z,2.17
2019-05-13T10:58:08.726Z,3.98
2019-05-13T11:00:57.335Z,3.17
2019-05-13T11:03:45.001Z,4.97
2019-05-13T11:06:33.526Z,5.20
2019-05-13T11:09:22.473Z,3.70
2019-05-13T11:12:12.177Z,3.47
2019-05-13T11:15:02.576Z,2.42
2019-05-13T11:17:51.912Z,3.77
2019-05-13T11:20:41.889Z,3.95
2019-05-13T11:23:32.244Z,2.70
2019-05-13T11:26:22.043Z,4.08
2019-05-13T11:29:12.136Z,3.35
2019-05-13T11:32:02.708Z,3.60
2019-05-13T11:34:53.030Z,4.33
2019-05-13T11:37:43.044Z,2.00
2019-05-13T11:40:31.804Z,2.65
2019-05-13T11:43:21.514Z,2.20
2019-05-13T11:46:11.115Z,3.15
2019-05-13T11:48:58.866Z,4.60
2019-05-13T11:51:46.820Z,3.22
2019-05-13T11:54:35.379Z,5.78
2019-05-13T11:57:24.021Z,3.83
2019-05-13T12:03:04.229Z,2.92
2019-05-13T12:05:54.044Z,5.37
2019-05-13T12:08:50.131Z,3.70
2019-05-13T12:11:33.450Z,2.15
2019-05-13T12:17:14.080Z,2.17
2019-05-13T12:20:02.968Z,2.40
2019-05-13T12:22:52.040Z,2.47
2019-05-13T12:25:43.765Z,2.02
2019-05-13T12:28:30.315Z,3.05
2019-05-13T12:31:18.283Z,3.35
2019-05-13T12:34:06.587Z,2.15
2019-05-13T12:36:55.291Z,5.85
2019-05-13T12:39:44.125Z,3.60
2019-05-13T12:42:33.864Z,2.08
2019-05-13T12:45:22.583Z,3.70
2019-05-13T12:48:13.919Z,3.92
2019-05-13T12:51:03.041Z,3.50
2019-05-13T12:53:52.820Z,2.70
2019-05-13T12:56:42.633Z,3.25
2019-05-13T12:59:32.121Z,3.08
2019-05-13T13:02:22.542Z,3.17
2019-05-13T13:05:19.554Z,2.90
2019-05-13T13:08:18.425Z,7.45
2019-05-13T13:10:53.220Z,3.12
2019-05-13T13:13:57.989Z,2.98
2019-05-13T13:16:34.693Z,3.67
2019-05-13T13:19:22.036Z,2.77
2019-05-13T13:22:13.297Z,6.42
2019-05-13T13:25:04.182Z,4.70
2019-05-13T13:28:08.820Z,1.52
2019-05-13T13:30:38.617Z,2.42
2019-05-13T13:33:27.316Z,2.80
2019-05-13T13:36:16.110Z,2.33
2019-05-13T13:39:06.056Z,3.30
2019-05-13T13:41:54.247Z,3.55
2019-05-13T13:44:43.051Z,5.42
2019-05-13T13:47:33.226Z,3.40
2019-05-13T13:50:24.641Z,2.85
2019-05-13T13:53:14.121Z,1.60
2019-05-13T13:56:02.313Z,2.90
2019-05-13T13:58:50.125Z,3.15
2019-05-13T14:01:38.335Z,2.87
2019-05-13T14:04:26.591Z,3.77
2019-05-13T14:06:30.813Z,2.92
2019-05-13T14:07:02.817Z,3.55
2019-05-13T14:07:27.975Z,2.83
2019-05-13T14:10:07.075Z,4.42
2019-05-13T14:12:55.299Z,3.33
2019-05-13T14:15:43.754Z,5.17
2019-05-13T14:18:32.126Z,3.22
2019-05-13T14:21:21.566Z,6.50
2019-05-13T14:24:12.048Z,2.72
2019-05-13T14:26:59.445Z,3.22
2019-05-13T14:29:49.398Z,2.80
2019-05-13T14:32:36.521Z,2.10
2019-05-13T14:35:24.025Z,2.83
2019-05-13T14:38:12.186Z,3.47
2019-05-13T14:41:03.013Z,4.10
2019-05-13T14:43:51.661Z,2.70
2019-05-13T14:46:47.282Z,4.22
2019-05-13T14:49:31.718Z,2.80
2019-05-13T14:52:22.082Z,3.65
2019-05-13T14:55:09.646Z,4.03
2019-05-13T14:57:57.574Z,3.58
2019-05-13T15:00:45.736Z,2.92
2019-05-13T15:03:34.434Z,4.28
2019-05-13T15:06:22.868Z,2.25
2019-05-13T15:09:12.566Z,3.37
2019-05-13T15:12:02.087Z,2.80
2019-05-13T15:14:52.353Z,3.40
2019-05-13T15:17:42.618Z,3.20
2019-05-13T15:20:33.134Z,3.75
2019-05-13T15:23:22.209Z,2.60
2019-05-13T15:26:11.710Z,2.15
2019-05-13T15:29:04.686Z,3.55
2019-05-13T15:31:51.434Z,3.17
2019-05-13T15:34:42.077Z,3.15
2019-05-13T15:37:31.975Z,2.47
2019-05-13T15:40:18.923Z,3.52
2019-05-13T15:43:07.593Z,3.37
2019-05-13T15:45:55.582Z,2.27
2019-05-13T15:48:43.835Z,3.57
2019-05-13T15:51:32.206Z,3.03
2019-05-13T15:54:22.119Z,2.93
2019-05-13T15:57:11.902Z,3.40
2019-05-13T16:00:01.979Z,4.23
2019-05-13T16:02:52.256Z,4.40
2019-05-13T16:05:42.345Z,5.87
2019-05-13T16:08:32.058Z,4.10
2019-05-13T16:11:22.015Z,4.00
2019-05-13T16:14:11.711Z,3.60
2019-05-13T16:17:00.328Z,3.80
2019-05-13T16:19:53.178Z,3.70
2019-05-13T16:22:38.681Z,3.53
2019-05-13T16:25:26.893Z,3.57
2019-05-13T16:28:15.908Z,2.40
2019-05-13T16:31:03.668Z,3.30
2019-05-13T16:33:52.381Z,4.53
2019-05-13T16:36:42.839Z,5.30
2019-05-13T16:39:31.834Z,4.73
2019-05-13T16:42:22.297Z,2.37
2019-05-13T16:45:11.969Z,3.60
2019-05-13T16:48:03.491Z,4.30
2019-05-13T16:50:49.839Z,2.73
2019-05-13T16:53:38.007Z,4.80
2019-05-13T16:56:30.222Z,2.83
2019-05-13T16:59:15.667Z,4.30
2019-05-13T17:02:03.559Z,5.10
2019-05-13T17:04:52.184Z,4.77
2019-05-13T17:07:42.204Z,1.83
2019-05-13T17:10:31.625Z,3.10
2019-05-13T17:13:22.152Z,3.30
2019-05-13T17:16:10.343Z,4.67
2019-05-13T17:18:58.694Z,6.70
2019-05-13T17:21:47.038Z,3.20
2019-05-13T17:24:35.422Z,2.97
2019-05-13T17:27:23.898Z,3.40
2019-05-13T17:30:12.711Z,4.37
2019-05-13T17:33:02.306Z,4.97
2019-05-13T17:35:50.080Z,8.73
2019-05-13T17:38:38.223Z,3.03
2019-05-13T17:41:26.190Z,4.17
2019-05-13T17:44:14.774Z,2.40
2019-05-13T17:47:02.594Z,3.90
2019-05-13T17:49:52.148Z,3.40
2019-05-13T17:52:40.296Z,4.60
2019-05-13T17:55:28.535Z,2.30
2019-05-13T17:58:16.719Z,3.37
2019-05-13T18:01:05.007Z,3.70
2019-05-13T18:03:53.154Z,3.07
2019-05-13T18:06:41.707Z,5.03
2019-05-13T18:09:31.953Z,5.13
2019-05-13T18:12:22.337Z,5.80
2019-05-13T18:15:11.545Z,2.77
2019-05-13T18:18:01.518Z,3.07
2019-05-13T18:20:51.897Z,2.80
2019-05-13T18:23:41.293Z,2.03
2019-05-13T18:26:28.386Z,3.37
2019-05-13T18:29:16.795Z,4.17
2019-05-13T18:32:04.482Z,6.43
2019-05-13T18:34:52.607Z,2.57
2019-05-13T18:37:41.967Z,2.60
2019-05-13T18:40:31.600Z,3.90
2019-05-13T18:43:21.558Z,3.70
2019-05-13T18:46:12.198Z,2.53
2019-05-13T18:49:02.073Z,3.40
2019-05-13T18:51:49.526Z,3.70
2019-05-13T18:54:37.717Z,3.10
2019-05-13T18:57:25.354Z,3.00
2019-05-13T19:00:13.820Z,6.90
2019-05-13T19:03:01.564Z,4.07
2019-05-13T19:05:49.249Z,6.00
2019-05-13T19:08:41.351Z,2.33
2019-05-13T19:11:31.609Z,3.57
2019-05-13T19:14:21.266Z,3.03
2019-05-13T19:17:12.142Z,3.03
2019-05-13T19:19:59.671Z,2.23
2019-05-13T19:22:47.829Z,3.33
2019-05-13T19:25:36.084Z,3.43
2019-05-13T19:28:24.099Z,2.90
2019-05-13T19:31:12.513Z,4.37
2019-05-13T19:34:01.469Z,6.60
2019-05-13T19:36:51.575Z,4.87
2019-05-13T19:39:38.978Z,2.27
2019-05-13T19:42:26.771Z,2.50
2019-05-13T19:45:15.055Z,2.60
2019-05-13T19:48:02.972Z,2.23
2019-05-13T19:50:52.138Z,5.67
2019-05-13T19:53:41.197Z,4.60
2019-05-13T19:56:31.927Z,3.87
2019-05-13T19:59:21.584Z,3.67
2019-05-13T20:02:09.254Z,3.30
2019-05-13T20:04:57.696Z,3.80
2019-05-13T20:07:46.115Z,4.40
2019-05-13T20:10:33.853Z,4.03
2019-05-13T20:13:22.432Z,4.07
2019-05-13T20:16:11.699Z,2.60
2019-05-13T20:19:01.245Z,3.03
2019-05-13T20:21:51.584Z,4.93
2019-05-13T20:24:41.826Z,3.70
2019-05-13T20:27:31.525Z,4.57
2019-05-13T20:30:21.792Z,6.20
2019-05-13T20:33:08.795Z,3.50
2019-05-13T20:35:57.311Z,4.13
2019-05-13T20:38:45.537Z,2.73
2019-05-13T20:41:33.882Z,6.20
2019-05-13T20:44:22.152Z,2.77
2019-05-13T20:47:10.449Z,3.23
2019-05-13T20:50:02.207Z,2.83
2019-05-13T20:52:47.899Z,3.00
2019-05-13T20:55:36.008Z,6.00
2019-05-13T20:58:24.250Z,8.00
2019-05-13T21:01:12.774Z,2.87
2019-05-13T21:04:01.815Z,4.10
2019-05-13T21:06:51.566Z,2.30
2019-05-13T21:09:42.334Z,1.60
2019-05-13T21:12:31.353Z,4.37
2019-05-13T21:15:20.007Z,4.27
2019-05-13T21:18:07.936Z,3.27
2019-05-13T21:20:56.415Z,4.20
2019-05-13T21:23:45.176Z,2.30
2019-05-13T21:26:33.360Z,2.40
2019-05-13T21:29:21.752Z,4.47
2019-05-13T21:32:11.576Z,1.83
2019-05-13T21:35:01.631Z,3.43
2019-05-13T21:37:51.184Z,7.47
2019-05-13T21:40:41.347Z,4.10
2019-05-13T21:43:28.742Z,6.30
2019-05-13T21:46:17.392Z,4.70
2019-05-13T21:49:06.033Z,4.43
2019-05-13T21:51:55.027Z,2.60
2019-05-13T21:54:43.495Z,1.93
2019-05-13T21:57:33.099Z,2.30
2019-05-13T22:00:25.573Z,3.27
2019-05-13T22:03:13.538Z,3.13
2019-05-13T22:06:02.150Z,3.27
2019-05-13T22:08:51.783Z,4.10
2019-05-13T22:11:42.056Z,3.90
2019-05-13T22:14:32.032Z,6.40
2019-05-13T22:17:19.339Z,9.43
2019-05-13T22:20:08.408Z,2.80
2019-05-13T22:22:56.380Z,6.20
2019-05-13T22:25:44.632Z,3.70
2019-05-13T22:28:33.245Z,3.47
2019-05-13T22:31:22.211Z,5.57
2019-05-13T22:34:12.135Z,3.57
2019-05-13T22:37:02.415Z,4.53
2019-05-13T22:39:50.356Z,8.43
2019-05-13T22:42:38.432Z,4.53
2019-05-13T22:45:26.822Z,3.77
2019-05-13T22:48:15.059Z,3.73
2019-05-13T22:51:03.919Z,7.20
2019-05-13T22:53:51.883Z,2.43
2019-05-13T22:56:41.210Z,2.70
2019-05-13T22:59:29.593Z,2.90
2019-05-13T23:02:17.793Z,4.27
2019-05-13T23:05:06.326Z,4.20
2019-05-13T23:07:54.641Z,3.37
2019-05-13T23:10:42.837Z,4.13
2019-05-13T23:13:31.510Z,2.10
2019-05-13T23:16:22.250Z,4.80
2019-05-13T23:19:11.092Z,5.00
2019-05-13T23:22:01.629Z,5.13
2019-05-13T23:24:49.990Z,2.20
2019-05-13T23:27:38.738Z,4.00
2019-05-13T23:30:26.451Z,3.70
2019-05-13T23:33:14.652Z,5.37
2019-05-13T23:36:03.357Z,4.30
2019-05-13T23:38:51.797Z,3.23
2019-05-13T23:41:41.428Z,3.83
2019-05-13T23:44:29.192Z,4.87
2019-05-13T23:47:18.074Z,5.10
2019-05-13T23:50:06.479Z,5.27
2019-05-13T23:52:54.279Z,3.27
2019-05-13T23:55:41.954Z,4.63
2019-05-13T23:58:32.162Z,2.70
